sensor_id;sensor_type;location;lat;lon;timestamp;P1;durP1;ratioP1;P2;durP2;ratioP2
43841;SDS011;29495;49.970;20.842;2023-08-17T00:01:08;3.53;;;2.90;;
43841;SDS011;29495;49.970;20.842;2023-08-17T00:03:34;3.92;;;3.38;;
43841;SDS011;29495;49.970;20.842;2023-08-17T00:06:00;4.68;;;3.45;;
43841;SDS011;29495;49.970;20.842;2023-08-17T00:08:26;4.88;;;3.10;;
43841;SDS011;29495;49.970;20.842;2023-08-17T00:10:52;4.15;;;3.30;;
43841;SDS011;29495;49.970;20.842;2023-08-17T00:13:18;3.42;;;2.83;;
43841;SDS011;29495;49.970;20.842;2023-08-17T00:15:44;3.20;;;2.90;;
43841;SDS011;29495;49.970;20.842;2023-08-17T00:18:10;3.38;;;2.95;;
43841;SDS011;29495;49.970;20.842;2023-08-17T00:20:37;3.85;;;2.85;;
43841;SDS011;29495;49.970;20.842;2023-08-17T00:23:03;3.03;;;2.75;;
43841;SDS011;29495;49.970;20.842;2023-08-17T00:25:29;3.00;;;2.70;;
43841;SDS011;29495;49.970;20.842;2023-08-17T00:27:55;3.10;;;2.17;;
43841;SDS011;29495;49.970;20.842;2023-08-17T00:30:21;3.28;;;2.50;;
43841;SDS011;29495;49.970;20.842;2023-08-17T00:32:47;4.07;;;2.70;;
43841;SDS011;29495;49.970;20.842;2023-08-17T00:35:13;3.38;;;3.05;;
43841;SDS011;29495;49.970;20.842;2023-08-17T00:37:39;3.53;;;2.92;;
43841;SDS011;29495;49.970;20.842;2023-08-17T00:40:06;4.18;;;2.80;;
43841;SDS011;29495;49.970;20.842;2023-08-17T00:42:32;3.20;;;2.90;;
43841;SDS011;29495;49.970;20.842;2023-08-17T00:44:58;3.63;;;2.80;;
43841;SDS011;29495;49.970;20.842;2023-08-17T00:47:25;2.60;;;2.40;;
43841;SDS011;29495;49.970;20.842;2023-08-17T00:49:51;3.22;;;2.47;;
43841;SDS011;29495;49.970;20.842;2023-08-17T00:52:17;3.30;;;2.58;;
43841;SDS011;29495;49.970;20.842;2023-08-17T00:54:43;4.45;;;2.92;;
43841;SDS011;29495;49.970;20.842;2023-08-17T00:57:09;4.00;;;3.58;;
43841;SDS011;29495;49.970;20.842;2023-08-17T00:59:36;2.78;;;2.58;;
43841;SDS011;29495;49.970;20.842;2023-08-17T01:02:02;3.05;;;2.75;;
43841;SDS011;29495;49.970;20.842;2023-08-17T01:04:29;3.33;;;2.30;;
43841;SDS011;29495;49.970;20.842;2023-08-17T01:06:56;2.60;;;2.33;;
43841;SDS011;29495;49.970;20.842;2023-08-17T01:09:22;3.65;;;2.90;;
43841;SDS011;29495;49.970;20.842;2023-08-17T01:11:59;2.88;;;2.58;;
43841;SDS011;29495;49.970;20.842;2023-08-17T01:14:38;2.45;;;2.25;;
43841;SDS011;29495;49.970;20.842;2023-08-17T01:17:15;3.13;;;2.80;;
43841;SDS011;29495;49.970;20.842;2023-08-17T01:19:48;3.43;;;2.80;;
43841;SDS011;29495;49.970;20.842;2023-08-17T01:22:16;2.95;;;2.70;;
43841;SDS011;29495;49.970;20.842;2023-08-17T01:24:46;3.88;;;2.40;;
43841;SDS011;29495;49.970;20.842;2023-08-17T01:27:14;4.40;;;2.63;;
43841;SDS011;29495;49.970;20.842;2023-08-17T01:29:40;2.88;;;2.42;;
43841;SDS011;29495;49.970;20.842;2023-08-17T01:32:09;3.10;;;2.70;;
43841;SDS011;29495;49.970;20.842;2023-08-17T01:34:48;4.45;;;2.83;;
43841;SDS011;29495;49.970;20.842;2023-08-17T01:37:22;3.25;;;2.80;;
43841;SDS011;29495;49.970;20.842;2023-08-17T01:39:54;3.92;;;2.85;;
43841;SDS011;29495;49.970;20.842;2023-08-17T01:42:22;2.78;;;2.42;;
43841;SDS011;29495;49.970;20.842;2023-08-17T01:44:49;3.30;;;3.00;;
43841;SDS011;29495;49.970;20.842;2023-08-17T01:47:16;3.20;;;2.55;;
43841;SDS011;29495;49.970;20.842;2023-08-17T01:49:49;3.25;;;2.45;;
43841;SDS011;29495;49.970;20.842;2023-08-17T01:52:15;3.75;;;2.95;;
43841;SDS011;29495;49.970;20.842;2023-08-17T01:54:41;3.40;;;3.10;;
43841;SDS011;29495;49.970;20.842;2023-08-17T01:57:07;3.20;;;2.90;;
43841;SDS011;29495;49.970;20.842;2023-08-17T01:59:33;3.42;;;2.80;;
43841;SDS011;29495;49.970;20.842;2023-08-17T02:01:59;2.67;;;2.45;;
43841;SDS011;29495;49.970;20.842;2023-08-17T02:04:25;3.03;;;2.55;;
43841;SDS011;29495;49.970;20.842;2023-08-17T02:06:51;2.92;;;2.70;;
43841;SDS011;29495;49.970;20.842;2023-08-17T02:09:18;2.90;;;2.55;;
43841;SDS011;29495;49.970;20.842;2023-08-17T02:11:44;3.20;;;2.90;;
43841;SDS011;29495;49.970;20.842;2023-08-17T02:14:10;3.15;;;2.85;;
43841;SDS011;29495;49.970;20.842;2023-08-17T02:16:36;3.13;;;2.92;;
43841;SDS011;29495;49.970;20.842;2023-08-17T02:19:02;3.13;;;2.88;;
43841;SDS011;29495;49.970;20.842;2023-08-17T02:21:28;3.13;;;2.78;;
43841;SDS011;29495;49.970;20.842;2023-08-17T02:23:54;3.35;;;2.58;;
43841;SDS011;29495;49.970;20.842;2023-08-17T02:26:22;2.97;;;2.70;;
43841;SDS011;29495;49.970;20.842;2023-08-17T02:28:48;2.67;;;2.47;;
43841;SDS011;29495;49.970;20.842;2023-08-17T02:31:14;3.28;;;2.97;;
43841;SDS011;29495;49.970;20.842;2023-08-17T02:33:40;2.95;;;2.58;;
43841;SDS011;29495;49.970;20.842;2023-08-17T02:36:07;2.60;;;2.40;;
43841;SDS011;29495;49.970;20.842;2023-08-17T02:38:33;3.08;;;2.78;;
43841;SDS011;29495;49.970;20.842;2023-08-17T02:40:59;2.85;;;2.22;;
43841;SDS011;29495;49.970;20.842;2023-08-17T02:43:25;5.25;;;2.83;;
43841;SDS011;29495;49.970;20.842;2023-08-17T02:45:51;2.58;;;2.35;;
43841;SDS011;29495;49.970;20.842;2023-08-17T02:48:18;3.17;;;2.88;;
43841;SDS011;29495;49.970;20.842;2023-08-17T02:50:44;2.58;;;2.38;;
43841;SDS011;29495;49.970;20.842;2023-08-17T02:53:10;4.22;;;2.90;;
43841;SDS011;29495;49.970;20.842;2023-08-17T02:55:36;3.22;;;2.92;;
43841;SDS011;29495;49.970;20.842;2023-08-17T02:58:02;3.42;;;2.50;;
43841;SDS011;29495;49.970;20.842;2023-08-17T03:00:28;4.00;;;2.40;;
43841;SDS011;29495;49.970;20.842;2023-08-17T03:02:54;2.90;;;2.63;;
43841;SDS011;29495;49.970;20.842;2023-08-17T03:05:20;3.47;;;3.17;;
43841;SDS011;29495;49.970;20.842;2023-08-17T03:07:46;3.30;;;3.00;;
43841;SDS011;29495;49.970;20.842;2023-08-17T03:10:13;3.30;;;3.00;;
43841;SDS011;29495;49.970;20.842;2023-08-17T03:12:39;3.72;;;2.80;;
43841;SDS011;29495;49.970;20.842;2023-08-17T03:15:06;2.85;;;2.53;;
43841;SDS011;29495;49.970;20.842;2023-08-17T03:17:33;3.15;;;2.85;;
43841;SDS011;29495;49.970;20.842;2023-08-17T03:19:59;2.83;;;2.50;;
43841;SDS011;29495;49.970;20.842;2023-08-17T03:22:26;3.10;;;2.80;;
43841;SDS011;29495;49.970;20.842;2023-08-17T03:24:54;3.15;;;2.85;;
43841;SDS011;29495;49.970;20.842;2023-08-17T03:27:20;2.90;;;2.53;;
43841;SDS011;29495;49.970;20.842;2023-08-17T03:29:46;3.35;;;2.63;;
43841;SDS011;29495;49.970;20.842;2023-08-17T03:32:12;2.92;;;2.63;;
43841;SDS011;29495;49.970;20.842;2023-08-17T03:34:39;2.78;;;2.58;;
43841;SDS011;29495;49.970;20.842;2023-08-17T03:37:06;3.05;;;2.83;;
43841;SDS011;29495;49.970;20.842;2023-08-17T03:39:32;2.92;;;2.63;;
43841;SDS011;29495;49.970;20.842;2023-08-17T03:41:58;3.53;;;3.22;;
43841;SDS011;29495;49.970;20.842;2023-08-17T03:44:25;3.60;;;3.30;;
43841;SDS011;29495;49.970;20.842;2023-08-17T03:46:51;4.30;;;2.70;;
43841;SDS011;29495;49.970;20.842;2023-08-17T03:49:17;3.47;;;3.13;;
43841;SDS011;29495;49.970;20.842;2023-08-17T03:51:43;3.03;;;2.72;;
43841;SDS011;29495;49.970;20.842;2023-08-17T03:54:10;3.40;;;2.92;;
43841;SDS011;29495;49.970;20.842;2023-08-17T03:56:37;3.50;;;2.78;;
43841;SDS011;29495;49.970;20.842;2023-08-17T03:59:03;3.20;;;2.20;;
43841;SDS011;29495;49.970;20.842;2023-08-17T04:01:29;3.15;;;2.78;;
43841;SDS011;29495;49.970;20.842;2023-08-17T04:03:56;3.47;;;2.90;;
43841;SDS011;29495;49.970;20.842;2023-08-17T04:06:22;3.17;;;2.88;;
43841;SDS011;29495;49.970;20.842;2023-08-17T04:08:48;3.05;;;2.75;;
43841;SDS011;29495;49.970;20.842;2023-08-17T04:11:14;3.20;;;2.75;;
43841;SDS011;29495;49.970;20.842;2023-08-17T04:13:40;2.97;;;2.63;;
43841;SDS011;29495;49.970;20.842;2023-08-17T04:16:06;2.90;;;2.25;;
43841;SDS011;29495;49.970;20.842;2023-08-17T04:18:32;2.75;;;2.30;;
43841;SDS011;29495;49.970;20.842;2023-08-17T04:20:59;2.50;;;2.30;;
43841;SDS011;29495;49.970;20.842;2023-08-17T04:23:25;2.80;;;2.60;;
43841;SDS011;29495;49.970;20.842;2023-08-17T04:25:51;3.72;;;2.65;;
43841;SDS011;29495;49.970;20.842;2023-08-17T04:28:19;2.50;;;2.30;;
43841;SDS011;29495;49.970;20.842;2023-08-17T04:30:45;2.97;;;2.28;;
43841;SDS011;29495;49.970;20.842;2023-08-17T04:33:11;4.78;;;3.10;;
43841;SDS011;29495;49.970;20.842;2023-08-17T04:35:38;2.90;;;2.65;;
43841;SDS011;29495;49.970;20.842;2023-08-17T04:38:05;2.90;;;2.65;;
43841;SDS011;29495;49.970;20.842;2023-08-17T04:40:31;3.15;;;2.85;;
43841;SDS011;29495;49.970;20.842;2023-08-17T04:42:59;3.22;;;2.92;;
43841;SDS011;29495;49.970;20.842;2023-08-17T04:45:26;3.53;;;3.00;;
43841;SDS011;29495;49.970;20.842;2023-08-17T04:47:52;3.92;;;2.53;;
43841;SDS011;29495;49.970;20.842;2023-08-17T04:50:18;2.40;;;2.20;;
43841;SDS011;29495;49.970;20.842;2023-08-17T04:52:44;2.58;;;2.38;;
43841;SDS011;29495;49.970;20.842;2023-08-17T04:55:11;2.50;;;2.30;;
43841;SDS011;29495;49.970;20.842;2023-08-17T04:57:38;2.78;;;2.55;;
43841;SDS011;29495;49.970;20.842;2023-08-17T05:00:06;3.80;;;2.70;;
43841;SDS011;29495;49.970;20.842;2023-08-17T05:02:37;4.72;;;2.83;;
43841;SDS011;29495;49.970;20.842;2023-08-17T05:05:04;2.95;;;2.58;;
43841;SDS011;29495;49.970;20.842;2023-08-17T05:07:32;2.57;;;2.37;;
43841;SDS011;29495;49.970;20.842;2023-08-17T05:09:59;3.17;;;2.88;;
43841;SDS011;29495;49.970;20.842;2023-08-17T05:12:26;2.97;;;2.67;;
43841;SDS011;29495;49.970;20.842;2023-08-17T05:17:20;4.20;;;2.95;;
43841;SDS011;29495;49.970;20.842;2023-08-17T05:19:47;2.88;;;2.45;;
43841;SDS011;29495;49.970;20.842;2023-08-17T05:22:17;2.63;;;2.42;;
43841;SDS011;29495;49.970;20.842;2023-08-17T05:24:43;2.15;;;2.00;;
43841;SDS011;29495;49.970;20.842;2023-08-17T05:27:10;3.00;;;2.58;;
43841;SDS011;29495;49.970;20.842;2023-08-17T05:29:40;3.00;;;2.65;;
43841;SDS011;29495;49.970;20.842;2023-08-17T05:32:07;2.97;;;2.70;;
43841;SDS011;29495;49.970;20.842;2023-08-17T05:34:42;2.97;;;2.42;;
43841;SDS011;29495;49.970;20.842;2023-08-17T05:37:09;2.85;;;2.60;;
43841;SDS011;29495;49.970;20.842;2023-08-17T05:39:45;3.03;;;2.70;;
43841;SDS011;29495;49.970;20.842;2023-08-17T05:44:40;3.30;;;2.80;;
43841;SDS011;29495;49.970;20.842;2023-08-17T05:47:15;3.45;;;3.15;;
43841;SDS011;29495;49.970;20.842;2023-08-17T05:49:44;4.43;;;2.70;;
43841;SDS011;29495;49.970;20.842;2023-08-17T05:52:13;2.83;;;2.53;;
43841;SDS011;29495;49.970;20.842;2023-08-17T05:54:39;3.45;;;2.80;;
43841;SDS011;29495;49.970;20.842;2023-08-17T05:57:08;3.03;;;2.70;;
43841;SDS011;29495;49.970;20.842;2023-08-17T05:59:36;3.17;;;2.97;;
43841;SDS011;29495;49.970;20.842;2023-08-17T06:02:02;3.67;;;3.30;;
43841;SDS011;29495;49.970;20.842;2023-08-17T06:04:28;3.70;;;2.70;;
43841;SDS011;29495;49.970;20.842;2023-08-17T06:06:57;2.75;;;2.55;;
43841;SDS011;29495;49.970;20.842;2023-08-17T06:09:26;4.07;;;3.17;;
43841;SDS011;29495;49.970;20.842;2023-08-17T06:11:52;3.20;;;3.00;;
43841;SDS011;29495;49.970;20.842;2023-08-17T06:14:18;3.28;;;2.97;;
43841;SDS011;29495;49.970;20.842;2023-08-17T06:16:44;2.72;;;2.53;;
43841;SDS011;29495;49.970;20.842;2023-08-17T06:19:10;2.67;;;2.25;;
43841;SDS011;29495;49.970;20.842;2023-08-17T06:21:39;3.15;;;2.80;;
43841;SDS011;29495;49.970;20.842;2023-08-17T06:24:05;2.85;;;2.65;;
43841;SDS011;29495;49.970;20.842;2023-08-17T06:26:31;2.55;;;2.35;;
43841;SDS011;29495;49.970;20.842;2023-08-17T06:28:58;3.05;;;2.70;;
43841;SDS011;29495;49.970;20.842;2023-08-17T06:31:24;3.50;;;2.25;;
43841;SDS011;29495;49.970;20.842;2023-08-17T06:33:53;4.03;;;2.72;;
43841;SDS011;29495;49.970;20.842;2023-08-17T06:36:20;2.72;;;2.47;;
43841;SDS011;29495;49.970;20.842;2023-08-17T06:38:48;3.72;;;2.90;;
43841;SDS011;29495;49.970;20.842;2023-08-17T06:41:15;3.15;;;2.80;;
43841;SDS011;29495;49.970;20.842;2023-08-17T06:43:42;3.85;;;3.20;;
43841;SDS011;29495;49.970;20.842;2023-08-17T06:46:08;2.95;;;2.67;;
43841;SDS011;29495;49.970;20.842;2023-08-17T06:48:35;4.38;;;3.10;;
43841;SDS011;29495;49.970;20.842;2023-08-17T06:51:04;4.28;;;3.50;;
43841;SDS011;29495;49.970;20.842;2023-08-17T06:53:33;3.95;;;3.00;;
43841;SDS011;29495;49.970;20.842;2023-08-17T06:55:59;3.38;;;2.80;;
43841;SDS011;29495;49.970;20.842;2023-08-17T06:58:26;3.08;;;2.65;;
43841;SDS011;29495;49.970;20.842;2023-08-17T07:00:52;3.05;;;2.75;;
43841;SDS011;29495;49.970;20.842;2023-08-17T07:03:18;3.20;;;2.63;;
43841;SDS011;29495;49.970;20.842;2023-08-17T07:05:48;3.88;;;3.20;;
43841;SDS011;29495;49.970;20.842;2023-08-17T07:08:17;3.42;;;3.10;;
43841;SDS011;29495;49.970;20.842;2023-08-17T07:13:11;4.15;;;3.20;;
43841;SDS011;29495;49.970;20.842;2023-08-17T07:15:40;3.88;;;3.00;;
43841;SDS011;29495;49.970;20.842;2023-08-17T07:18:06;3.90;;;3.47;;
43841;SDS011;29495;49.970;20.842;2023-08-17T07:20:32;3.95;;;3.20;;
43841;SDS011;29495;49.970;20.842;2023-08-17T07:23:00;2.90;;;2.70;;
43841;SDS011;29495;49.970;20.842;2023-08-17T07:25:27;3.83;;;2.78;;
43841;SDS011;29495;49.970;20.842;2023-08-17T07:27:55;3.63;;;3.33;;
43841;SDS011;29495;49.970;20.842;2023-08-17T07:30:24;3.85;;;3.22;;
43841;SDS011;29495;49.970;20.842;2023-08-17T07:32:50;3.42;;;3.13;;
43841;SDS011;29495;49.970;20.842;2023-08-17T07:35:19;3.53;;;2.97;;
43841;SDS011;29495;49.970;20.842;2023-08-17T07:40:58;3.40;;;2.50;;
43841;SDS011;29495;49.970;20.842;2023-08-17T07:43:32;2.63;;;2.42;;
43841;SDS011;29495;49.970;20.842;2023-08-17T07:46:47;3.47;;;3.17;;
43841;SDS011;29495;49.970;20.842;2023-08-17T07:49:29;5.72;;;3.40;;
43841;SDS011;29495;49.970;20.842;2023-08-17T07:52:03;4.97;;;3.72;;
43841;SDS011;29495;49.970;20.842;2023-08-17T07:54:37;5.32;;;3.50;;
43841;SDS011;29495;49.970;20.842;2023-08-17T07:57:17;3.58;;;3.25;;
43841;SDS011;29495;49.970;20.842;2023-08-17T07:59:53;4.47;;;3.65;;
43841;SDS011;29495;49.970;20.842;2023-08-17T08:02:41;4.65;;;4.05;;
43841;SDS011;29495;49.970;20.842;2023-08-17T08:05:22;4.13;;;3.05;;
43841;SDS011;29495;49.970;20.842;2023-08-17T08:08:02;3.70;;;3.05;;
43841;SDS011;29495;49.970;20.842;2023-08-17T08:10:31;4.07;;;3.03;;
43841;SDS011;29495;49.970;20.842;2023-08-17T08:13:22;3.38;;;2.63;;
43841;SDS011;29495;49.970;20.842;2023-08-17T08:15:48;3.42;;;2.35;;
43841;SDS011;29495;49.970;20.842;2023-08-17T08:18:28;3.95;;;2.90;;
43841;SDS011;29495;49.970;20.842;2023-08-17T08:20:59;4.13;;;2.90;;
43841;SDS011;29495;49.970;20.842;2023-08-17T08:24:20;5.30;;;2.95;;
43841;SDS011;29495;49.970;20.842;2023-08-17T08:26:49;3.22;;;2.83;;
43841;SDS011;29495;49.970;20.842;2023-08-17T08:32:21;2.67;;;2.20;;
43841;SDS011;29495;49.970;20.842;2023-08-17T08:35:00;2.60;;;2.40;;
43841;SDS011;29495;49.970;20.842;2023-08-17T08:37:38;4.82;;;3.00;;
43841;SDS011;29495;49.970;20.842;2023-08-17T08:40:37;3.50;;;2.65;;
43841;SDS011;29495;49.970;20.842;2023-08-17T08:43:21;2.88;;;2.50;;
43841;SDS011;29495;49.970;20.842;2023-08-17T08:46:24;2.90;;;2.35;;
43841;SDS011;29495;49.970;20.842;2023-08-17T08:49:17;2.47;;;2.10;;
43841;SDS011;29495;49.970;20.842;2023-08-17T18:22:53;1.48;;;1.38;;
43841;SDS011;29495;49.970;20.842;2023-08-17T18:25:19;1.00;;;0.90;;
43841;SDS011;29495;49.970;20.842;2023-08-17T18:27:45;1.33;;;1.10;;
43841;SDS011;29495;49.970;20.842;2023-08-17T18:30:12;2.17;;;1.58;;
43841;SDS011;29495;49.970;20.842;2023-08-17T18:32:38;4.03;;;1.52;;
43841;SDS011;29495;49.970;20.842;2023-08-17T18:35:05;1.65;;;1.35;;
43841;SDS011;29495;49.970;20.842;2023-08-17T18:37:32;2.42;;;1.45;;
43841;SDS011;29495;49.970;20.842;2023-08-17T18:39:58;2.70;;;1.42;;
43841;SDS011;29495;49.970;20.842;2023-08-17T18:42:24;1.60;;;1.25;;
43841;SDS011;29495;49.970;20.842;2023-08-17T18:44:53;2.75;;;1.85;;
43841;SDS011;29495;49.970;20.842;2023-08-17T18:47:20;1.95;;;1.35;;
43841;SDS011;29495;49.970;20.842;2023-08-17T18:49:47;3.75;;;1.55;;
43841;SDS011;29495;49.970;20.842;2023-08-17T18:52:14;2.70;;;1.50;;
43841;SDS011;29495;49.970;20.842;2023-08-17T18:54:56;1.20;;;1.10;;
43841;SDS011;29495;49.970;20.842;2023-08-17T18:57:31;1.58;;;1.48;;
43841;SDS011;29495;49.970;20.842;2023-08-17T18:59:57;3.65;;;1.60;;
43841;SDS011;29495;49.970;20.842;2023-08-17T19:02:23;4.93;;;2.83;;
43841;SDS011;29495;49.970;20.842;2023-08-17T19:04:49;3.97;;;2.30;;
43841;SDS011;29495;49.970;20.842;2023-08-17T19:07:15;3.15;;;2.00;;
43841;SDS011;29495;49.970;20.842;2023-08-17T19:09:41;2.75;;;1.67;;
43841;SDS011;29495;49.970;20.842;2023-08-17T19:12:09;1.80;;;1.33;;
43841;SDS011;29495;49.970;20.842;2023-08-17T19:14:35;2.45;;;1.73;;
43841;SDS011;29495;49.970;20.842;2023-08-17T19:17:01;2.85;;;1.73;;
43841;SDS011;29495;49.970;20.842;2023-08-17T19:19:27;2.80;;;2.22;;
43841;SDS011;29495;49.970;20.842;2023-08-17T19:21:53;2.90;;;1.70;;
43841;SDS011;29495;49.970;20.842;2023-08-17T19:24:19;3.20;;;1.98;;
43841;SDS011;29495;49.970;20.842;2023-08-17T19:26:46;2.28;;;1.98;;
43841;SDS011;29495;49.970;20.842;2023-08-17T19:29:11;2.58;;;1.98;;
43841;SDS011;29495;49.970;20.842;2023-08-17T19:31:37;2.13;;;1.60;;
43841;SDS011;29495;49.970;20.842;2023-08-17T19:34:03;3.35;;;1.88;;
43841;SDS011;29495;49.970;20.842;2023-08-17T19:36:33;2.67;;;2.15;;
43841;SDS011;29495;49.970;20.842;2023-08-17T19:38:59;4.38;;;2.13;;
43841;SDS011;29495;49.970;20.842;2023-08-17T19:41:25;2.88;;;2.13;;
43841;SDS011;29495;49.970;20.842;2023-08-17T19:43:51;2.80;;;2.40;;
43841;SDS011;29495;49.970;20.842;2023-08-17T19:46:17;2.53;;;1.92;;
43841;SDS011;29495;49.970;20.842;2023-08-17T19:48:43;2.38;;;2.03;;
43841;SDS011;29495;49.970;20.842;2023-08-17T19:51:09;3.47;;;1.98;;
43841;SDS011;29495;49.970;20.842;2023-08-17T19:53:36;3.13;;;2.40;;
43841;SDS011;29495;49.970;20.842;2023-08-17T19:56:02;4.25;;;2.65;;
43841;SDS011;29495;49.970;20.842;2023-08-17T19:58:28;4.07;;;2.58;;
43841;SDS011;29495;49.970;20.842;2023-08-17T20:00:54;4.00;;;2.67;;
43841;SDS011;29495;49.970;20.842;2023-08-17T20:03:28;3.83;;;3.25;;
43841;SDS011;29495;49.970;20.842;2023-08-17T20:05:57;5.25;;;3.50;;
43841;SDS011;29495;49.970;20.842;2023-08-17T20:08:23;3.97;;;2.90;;
43841;SDS011;29495;49.970;20.842;2023-08-17T20:10:49;4.38;;;3.28;;
43841;SDS011;29495;49.970;20.842;2023-08-17T20:13:16;3.22;;;2.63;;
43841;SDS011;29495;49.970;20.842;2023-08-17T20:15:42;4.43;;;3.05;;
43841;SDS011;29495;49.970;20.842;2023-08-17T20:18:08;3.25;;;2.45;;
43841;SDS011;29495;49.970;20.842;2023-08-17T20:20:36;3.37;;;2.27;;
43841;SDS011;29495;49.970;20.842;2023-08-17T20:23:02;4.05;;;2.90;;
43841;SDS011;29495;49.970;20.842;2023-08-17T20:25:28;3.42;;;2.30;;
43841;SDS011;29495;49.970;20.842;2023-08-17T20:27:54;2.28;;;2.05;;
43841;SDS011;29495;49.970;20.842;2023-08-17T20:30:20;2.97;;;2.40;;
43841;SDS011;29495;49.970;20.842;2023-08-17T20:32:46;3.13;;;2.38;;
43841;SDS011;29495;49.970;20.842;2023-08-17T20:35:12;3.03;;;2.20;;
43841;SDS011;29495;49.970;20.842;2023-08-17T20:37:38;1.85;;;1.75;;
43841;SDS011;29495;49.970;20.842;2023-08-17T20:40:05;2.22;;;1.83;;
43841;SDS011;29495;49.970;20.842;2023-08-17T20:42:32;4.65;;;2.08;;
43841;SDS011;29495;49.970;20.842;2023-08-17T20:44:58;2.42;;;1.90;;
43841;SDS011;29495;49.970;20.842;2023-08-17T20:47:24;2.08;;;1.90;;
43841;SDS011;29495;49.970;20.842;2023-08-17T20:49:50;2.22;;;1.88;;
43841;SDS011;29495;49.970;20.842;2023-08-17T20:52:17;2.55;;;2.17;;
43841;SDS011;29495;49.970;20.842;2023-08-17T20:54:43;3.85;;;2.33;;
43841;SDS011;29495;49.970;20.842;2023-08-17T20:57:09;3.55;;;2.53;;
43841;SDS011;29495;49.970;20.842;2023-08-17T20:59:35;3.17;;;1.90;;
43841;SDS011;29495;49.970;20.842;2023-08-17T21:02:01;3.63;;;2.42;;
43841;SDS011;29495;49.970;20.842;2023-08-17T21:04:27;3.67;;;2.10;;
43841;SDS011;29495;49.970;20.842;2023-08-17T21:06:53;2.10;;;1.90;;
43841;SDS011;29495;49.970;20.842;2023-08-17T21:09:19;2.50;;;2.17;;
43841;SDS011;29495;49.970;20.842;2023-08-17T21:11:46;3.92;;;2.33;;
43841;SDS011;29495;49.970;20.842;2023-08-17T21:14:12;4.20;;;2.78;;
43841;SDS011;29495;49.970;20.842;2023-08-17T21:16:38;3.90;;;2.80;;
43841;SDS011;29495;49.970;20.842;2023-08-17T21:19:04;5.07;;;3.33;;
43841;SDS011;29495;49.970;20.842;2023-08-17T21:21:30;4.63;;;2.88;;
43841;SDS011;29495;49.970;20.842;2023-08-17T21:23:56;5.53;;;3.55;;
43841;SDS011;29495;49.970;20.842;2023-08-17T21:26:22;3.55;;;2.95;;
43841;SDS011;29495;49.970;20.842;2023-08-17T21:28:49;2.97;;;2.65;;
43841;SDS011;29495;49.970;20.842;2023-08-17T21:31:15;4.22;;;3.17;;
43841;SDS011;29495;49.970;20.842;2023-08-17T21:33:41;4.28;;;2.97;;
43841;SDS011;29495;49.970;20.842;2023-08-17T21:36:07;3.90;;;2.70;;
43841;SDS011;29495;49.970;20.842;2023-08-17T21:38:33;3.33;;;2.80;;
43841;SDS011;29495;49.970;20.842;2023-08-17T21:41:00;3.45;;;2.60;;
43841;SDS011;29495;49.970;20.842;2023-08-17T21:43:27;3.42;;;3.00;;
43841;SDS011;29495;49.970;20.842;2023-08-17T21:45:54;3.13;;;2.63;;
43841;SDS011;29495;49.970;20.842;2023-08-17T21:48:20;4.45;;;2.83;;
43841;SDS011;29495;49.970;20.842;2023-08-17T21:50:47;3.65;;;2.80;;
43841;SDS011;29495;49.970;20.842;2023-08-17T21:53:19;4.90;;;2.45;;
43841;SDS011;29495;49.970;20.842;2023-08-17T21:55:50;3.75;;;2.63;;
43841;SDS011;29495;49.970;20.842;2023-08-17T21:58:17;5.35;;;3.10;;
43841;SDS011;29495;49.970;20.842;2023-08-17T22:00:44;2.83;;;2.50;;
43841;SDS011;29495;49.970;20.842;2023-08-17T22:03:11;3.10;;;2.60;;
43841;SDS011;29495;49.970;20.842;2023-08-17T22:05:38;4.57;;;3.05;;
43841;SDS011;29495;49.970;20.842;2023-08-17T22:08:04;3.10;;;2.80;;
43841;SDS011;29495;49.970;20.842;2023-08-17T22:10:31;3.20;;;2.90;;
43841;SDS011;29495;49.970;20.842;2023-08-17T22:12:57;4.25;;;2.95;;
43841;SDS011;29495;49.970;20.842;2023-08-17T22:15:24;3.70;;;3.17;;
43841;SDS011;29495;49.970;20.842;2023-08-17T22:17:50;3.17;;;2.67;;
43841;SDS011;29495;49.970;20.842;2023-08-17T22:20:16;3.80;;;3.10;;
43841;SDS011;29495;49.970;20.842;2023-08-17T22:22:44;3.20;;;2.90;;
43841;SDS011;29495;49.970;20.842;2023-08-17T22:25:10;2.95;;;2.47;;
43841;SDS011;29495;49.970;20.842;2023-08-17T22:27:37;4.85;;;2.67;;
43841;SDS011;29495;49.970;20.842;2023-08-17T22:30:03;2.50;;;2.30;;
43841;SDS011;29495;49.970;20.842;2023-08-17T22:32:29;2.55;;;2.35;;
43841;SDS011;29495;49.970;20.842;2023-08-17T22:34:56;3.70;;;3.35;;
43841;SDS011;29495;49.970;20.842;2023-08-17T22:37:21;2.85;;;2.50;;
43841;SDS011;29495;49.970;20.842;2023-08-17T22:39:48;2.92;;;2.65;;
43841;SDS011;29495;49.970;20.842;2023-08-17T22:42:14;4.20;;;2.80;;
43841;SDS011;29495;49.970;20.842;2023-08-17T22:44:40;3.55;;;2.90;;
43841;SDS011;29495;49.970;20.842;2023-08-17T22:47:06;2.97;;;2.67;;
43841;SDS011;29495;49.970;20.842;2023-08-17T22:49:33;3.15;;;2.17;;
43841;SDS011;29495;49.970;20.842;2023-08-17T22:51:59;2.72;;;2.17;;
43841;SDS011;29495;49.970;20.842;2023-08-17T22:54:28;3.63;;;2.38;;
43841;SDS011;29495;49.970;20.842;2023-08-17T22:56:54;4.25;;;2.95;;
43841;SDS011;29495;49.970;20.842;2023-08-17T22:59:20;3.17;;;2.65;;
43841;SDS011;29495;49.970;20.842;2023-08-17T23:01:47;3.85;;;3.42;;
43841;SDS011;29495;49.970;20.842;2023-08-17T23:04:13;3.33;;;2.70;;
43841;SDS011;29495;49.970;20.842;2023-08-17T23:06:39;4.68;;;2.38;;
43841;SDS011;29495;49.970;20.842;2023-08-17T23:09:05;3.80;;;2.80;;
43841;SDS011;29495;49.970;20.842;2023-08-17T23:11:31;2.33;;;2.10;;
43841;SDS011;29495;49.970;20.842;2023-08-17T23:13:57;3.50;;;2.38;;
43841;SDS011;29495;49.970;20.842;2023-08-17T23:16:24;2.90;;;2.60;;
43841;SDS011;29495;49.970;20.842;2023-08-17T23:18:50;3.65;;;2.78;;
43841;SDS011;29495;49.970;20.842;2023-08-17T23:21:16;2.53;;;2.30;;
43841;SDS011;29495;49.970;20.842;2023-08-17T23:23:42;3.80;;;2.92;;
43841;SDS011;29495;49.970;20.842;2023-08-17T23:26:08;3.42;;;3.10;;
43841;SDS011;29495;49.970;20.842;2023-08-17T23:28:35;3.42;;;2.92;;
43841;SDS011;29495;49.970;20.842;2023-08-17T23:31:01;3.10;;;2.80;;
43841;SDS011;29495;49.970;20.842;2023-08-17T23:33:27;3.13;;;2.70;;
43841;SDS011;29495;49.970;20.842;2023-08-17T23:35:53;4.60;;;2.85;;
43841;SDS011;29495;49.970;20.842;2023-08-17T23:38:20;2.70;;;2.38;;
43841;SDS011;29495;49.970;20.842;2023-08-17T23:40:47;2.75;;;2.55;;
43841;SDS011;29495;49.970;20.842;2023-08-17T23:43:13;2.53;;;2.13;;
43841;SDS011;29495;49.970;20.842;2023-08-17T23:45:39;3.33;;;2.55;;
43841;SDS011;29495;49.970;20.842;2023-08-17T23:48:05;3.75;;;2.60;;
43841;SDS011;29495;49.970;20.842;2023-08-17T23:50:31;3.53;;;2.80;;
43841;SDS011;29495;49.970;20.842;2023-08-17T23:52:58;4.72;;;3.13;;
43841;SDS011;29495;49.970;20.842;2023-08-17T23:55:24;3.03;;;2.72;;
43841;SDS011;29495;49.970;20.842;2023-08-17T23:57:50;4.65;;;3.00;;
